Time;durP1;ratioP1;P1;durP2;ratioP2;P2;SDS_P1;SDS_P2;PMS_P1;PMS_P2;Temp;Humidity;BMP_temperature;BMP_pressure;BME280_temperature;BME280_humidity;BME280_pressure;Samples;Min_cycle;Max_cycle;Signal;HPM_P1;HPM_P2
2022/01/02 00:01:44;;;;;;;12.23;6.38;;;10.30;99.90;;;;;;5053181;28;20017;-82
2022/01/02 00:04:14;;;;;;;11.55;6.78;;;10.30;99.90;;;;;;5052932;28;20065;-82
2022/01/02 00:06:49;;;;;;;14.75;6.70;;;10.30;99.90;;;;;;5053093;28;20041;-82
2022/01/02 00:09:19;;;;;;;12.50;6.78;;;10.20;99.90;;;;;;5054331;28;20063;-82
2022/01/02 00:11:47;;;;;;;11.00;6.50;;;10.20;99.90;;;;;;5054243;28;20025;-82
2022/01/02 00:14:17;;;;;;;10.55;6.85;;;10.20;99.90;;;;;;5054008;28;20029;-82
2022/01/02 00:16:42;;;;;;;13.35;7.18;;;10.20;99.90;;;;;;5054394;28;20052;-82
2022/01/02 00:19:19;;;;;;;12.52;7.00;;;10.10;99.90;;;;;;5052878;28;20067;-82
2022/01/02 00:21:47;;;;;;;13.70;6.95;;;10.10;99.90;;;;;;5053523;28;20035;-82
2022/01/02 00:24:18;;;;;;;9.65;6.55;;;10.10;99.90;;;;;;5054146;28;20039;-82
2022/01/02 00:26:48;;;;;;;11.23;6.28;;;10.10;99.90;;;;;;5052806;28;20123;-82
2022/01/02 00:29:13;;;;;;;11.02;6.88;;;10.10;99.90;;;;;;5052671;28;20029;-82
2022/01/02 00:31:40;;;;;;;10.77;6.65;;;10.10;99.90;;;;;;5052457;28;20033;-82
2022/01/02 00:34:07;;;;;;;15.10;6.60;;;10.10;99.90;;;;;;5052413;28;20440;-82
2022/01/02 00:36:32;;;;;;;12.45;6.85;;;10.10;99.90;;;;;;5053156;28;20033;-82
2022/01/02 00:38:58;;;;;;;12.63;6.95;;;10.20;99.90;;;;;;5052399;28;20159;-82
2022/01/02 00:41:46;;;;;;;11.82;6.97;;;10.20;99.90;;;;;;5053882;28;20048;-82
2022/01/02 00:44:45;;;;;;;12.75;6.57;;;10.20;99.90;;;;;;5053622;28;20104;-82
2022/01/02 00:47:19;;;;;;;13.00;6.38;;;10.20;99.90;;;;;;5053842;28;20814;-82
2022/01/02 00:50:05;;;;;;;16.35;6.65;;;10.20;99.90;;;;;;5053680;28;20108;-82
2022/01/02 00:52:35;;;;;;;10.65;6.38;;;10.20;99.90;;;;;;5053610;28;20104;-82
2022/01/02 00:55:03;;;;;;;13.05;6.55;;;10.20;99.90;;;;;;5053699;28;20025;-82
2022/01/02 00:57:33;;;;;;;11.60;6.60;;;10.20;99.90;;;;;;5051751;28;20056;-82
2022/01/02 01:00:14;;;;;;;11.48;6.25;;;10.20;99.90;;;;;;5053541;28;20268;-82
2022/01/02 01:02:48;;;;;;;13.57;7.30;;;10.20;99.90;;;;;;5052551;28;20033;-82
2022/01/02 01:05:17;;;;;;;14.25;7.10;;;10.20;99.90;;;;;;5054198;28;20076;-82
2022/01/02 01:07:46;;;;;;;14.40;6.93;;;10.20;99.90;;;;;;5053259;28;20028;-82
2022/01/02 01:10:12;;;;;;;13.48;7.03;;;10.20;99.90;;;;;;5053347;28;20025;-82
2022/01/02 01:12:38;;;;;;;11.13;6.63;;;10.30;99.90;;;;;;5052436;28;20021;-82
2022/01/02 01:15:07;;;;;;;13.43;7.30;;;10.30;99.90;;;;;;5053448;28;20021;-82
2022/01/02 01:17:36;;;;;;;13.45;6.32;;;10.30;99.90;;;;;;5053124;28;20115;-83
2022/01/02 01:20:03;;;;;;;12.60;6.57;;;10.30;99.90;;;;;;5053076;28;20021;-82
2022/01/02 01:22:29;;;;;;;12.35;6.03;;;10.30;99.90;;;;;;5051817;28;20110;-82
2022/01/02 01:24:54;;;;;;;14.48;7.07;;;10.30;99.90;;;;;;5053030;28;20079;-82
2022/01/02 01:27:20;;;;;;;13.63;6.88;;;10.30;99.90;;;;;;5053435;28;20032;-81
2022/01/02 01:29:46;;;;;;;15.05;6.80;;;10.30;99.90;;;;;;5051851;28;20421;-82
2022/01/02 01:32:11;;;;;;;11.85;6.68;;;10.30;99.90;;;;;;5053052;28;20025;-82
2022/01/02 01:34:37;;;;;;;13.10;6.97;;;10.30;99.90;;;;;;5052977;28;20035;-82
2022/01/02 01:37:03;;;;;;;14.38;6.72;;;10.40;99.90;;;;;;5053072;28;20032;-82
2022/01/02 01:39:28;;;;;;;13.73;7.53;;;10.40;99.90;;;;;;5052970;28;20048;-82
2022/01/02 01:41:55;;;;;;;13.00;6.88;;;10.40;99.90;;;;;;5052031;28;20045;-82
2022/01/02 01:46:48;;;;;;;15.85;7.55;;;10.50;99.90;;;;;;5053170;28;20111;-82
2022/01/02 01:49:20;;;;;;;17.10;7.75;;;10.50;99.90;;;;;;5053087;28;20024;-82
2022/01/02 01:51:47;;;;;;;16.35;7.68;;;10.50;99.90;;;;;;5051578;28;20485;-82
2022/01/02 01:54:52;;;;;;;17.08;7.80;;;10.50;99.90;;;;;;5051385;28;20034;-83
2022/01/02 01:57:17;;;;;;;16.08;7.28;;;10.60;99.90;;;;;;5033159;28;20064;-83
2022/01/02 02:03:05;;;;;;;16.52;7.78;;;10.60;99.90;;;;;;5033107;28;20061;-83
2022/01/02 02:05:31;;;;;;;16.58;8.27;;;10.70;99.90;;;;;;5032774;28;20041;-83
2022/01/02 02:07:57;;;;;;;15.27;8.45;;;10.70;99.90;;;;;;5031892;28;20380;-83
2022/01/02 02:11:09;;;;;;;16.95;8.63;;;10.70;99.90;;;;;;5034143;28;20606;-84
2022/01/02 02:13:38;;;;;;;14.07;7.47;;;10.70;99.90;;;;;;5035843;28;20469;-83
2022/01/02 02:16:37;;;;;;;18.05;7.93;;;10.80;99.90;;;;;;5035177;28;20025;-83
2022/01/02 02:19:04;;;;;;;17.10;8.65;;;10.80;99.90;;;;;;5035055;28;20449;-83
2022/01/02 02:21:36;;;;;;;18.65;8.35;;;10.70;99.90;;;;;;5035445;28;20026;-84
2022/01/02 02:24:04;;;;;;;16.25;7.85;;;10.70;99.90;;;;;;5035617;28;20377;-83
2022/01/02 02:26:32;;;;;;;14.90;7.55;;;10.60;99.90;;;;;;5034899;28;20037;-84
2022/01/02 02:28:59;;;;;;;16.65;8.88;;;10.60;99.90;;;;;;5035122;28;20029;-84
2022/01/02 02:31:24;;;;;;;13.98;8.00;;;10.60;99.90;;;;;;5035010;28;20029;-84
2022/01/02 02:33:50;;;;;;;17.75;8.18;;;10.50;99.90;;;;;;5035230;28;20129;-84
2022/01/02 02:36:16;;;;;;;18.00;8.25;;;10.50;99.90;;;;;;5035572;28;20025;-84
2022/01/02 02:38:42;;;;;;;13.63;7.85;;;10.60;99.90;;;;;;5034984;28;20381;-83
2022/01/02 02:41:07;;;;;;;18.08;7.57;;;10.50;99.90;;;;;;5035067;28;20017;-84
2022/01/02 02:44:16;;;;;;;17.40;7.95;;;10.50;99.90;;;;;;5034857;28;20036;-83
2022/01/02 02:49:09;;;;;;;15.45;7.45;;;10.50;99.90;;;;;;5036222;28;20041;-84
2022/01/02 02:54:03;;;;;;;13.60;7.90;;;10.50;99.90;;;;;;5035904;28;20108;-84
2022/01/02 02:56:41;;;;;;;17.50;8.70;;;10.50;99.90;;;;;;5050934;28;20171;-83
2022/01/02 02:59:07;;;;;;;14.95;8.05;;;10.50;99.90;;;;;;5054226;28;20036;-84
2022/01/02 03:01:33;;;;;;;14.07;8.38;;;10.50;99.90;;;;;;5054386;28;20025;-83
2022/01/02 03:03:59;;;;;;;13.40;8.27;;;10.50;99.90;;;;;;5054083;28;20408;-83
2022/01/02 03:06:25;;;;;;;15.05;8.05;;;10.60;99.90;;;;;;5054384;28;20028;-83
2022/01/02 03:08:51;;;;;;;16.58;8.73;;;10.50;99.90;;;;;;5053920;28;20017;-83
2022/01/02 03:11:20;;;;;;;16.33;8.65;;;10.60;99.90;;;;;;5054073;28;20025;-83
2022/01/02 03:13:49;;;;;;;18.95;8.77;;;10.60;99.90;;;;;;5053730;28;20799;-84
2022/01/02 03:16:15;;;;;;;16.52;8.38;;;10.60;99.90;;;;;;5054533;28;20388;-83
2022/01/02 03:18:41;;;;;;;15.05;7.85;;;10.60;99.90;;;;;;5053864;28;20035;-83
2022/01/02 03:21:07;;;;;;;14.13;8.50;;;10.60;99.90;;;;;;5053938;28;20075;-83
2022/01/02 03:23:33;;;;;;;19.13;8.48;;;10.60;99.90;;;;;;5053844;28;20025;-83
2022/01/02 03:25:58;;;;;;;13.88;7.93;;;10.60;99.90;;;;;;5054572;28;20075;-83
2022/01/02 03:28:24;;;;;;;18.40;8.32;;;10.60;99.90;;;;;;5053736;28;20445;-83
2022/01/02 03:30:50;;;;;;;14.68;8.27;;;10.60;99.90;;;;;;5054005;28;20068;-84
2022/01/02 03:33:16;;;;;;;17.80;8.32;;;10.70;99.90;;;;;;5054147;28;20021;-84
2022/01/02 03:35:42;;;;;;;19.17;7.85;;;10.60;99.90;;;;;;5053956;28;20029;-83
2022/01/02 03:38:09;;;;;;;20.48;8.38;;;10.60;99.90;;;;;;5053902;28;20032;-84
2022/01/02 03:40:34;;;;;;;19.52;8.07;;;10.80;99.90;;;;;;5054439;28;20075;-84
2022/01/02 03:43:00;;;;;;;15.80;8.38;;;10.60;99.90;;;;;;5053727;28;20021;-84
2022/01/02 03:45:26;;;;;;;13.63;8.02;;;10.60;99.90;;;;;;5053409;28;20032;-84
2022/01/02 03:47:52;;;;;;;19.30;8.43;;;10.60;99.90;;;;;;5053844;28;20086;-85
2022/01/02 03:50:18;;;;;;;15.93;8.30;;;10.60;99.90;;;;;;5053662;28;20021;-84
2022/01/02 03:52:44;;;;;;;19.95;8.82;;;10.60;99.90;;;;;;5053685;28;20037;-85
2022/01/02 03:55:10;;;;;;;18.42;8.15;;;10.60;99.90;;;;;;5053252;28;20091;-84
2022/01/02 03:57:36;;;;;;;14.25;7.75;;;10.60;99.90;;;;;;5053539;28;20527;-84
2022/01/02 04:00:08;;;;;;;15.75;7.90;;;10.60;99.90;;;;;;5053962;28;20017;-84
2022/01/02 04:02:37;;;;;;;16.67;7.50;;;10.60;99.90;;;;;;5053871;28;20113;-84
2022/01/02 04:05:07;;;;;;;16.13;8.05;;;10.60;99.90;;;;;;5053045;28;20063;-84
2022/01/02 04:07:33;;;;;;;19.83;9.00;;;10.60;99.90;;;;;;5053580;28;20419;-84
2022/01/02 04:10:05;;;;;;;15.60;7.30;;;10.60;99.90;;;;;;5052991;28;20477;-84
2022/01/02 04:12:31;;;;;;;15.48;7.75;;;10.70;99.90;;;;;;5053042;28;20029;-83
2022/01/02 04:14:57;;;;;;;18.58;7.93;;;10.60;99.90;;;;;;5053206;28;20095;-84
2022/01/02 04:17:23;;;;;;;16.75;7.35;;;10.70;99.90;;;;;;5052828;28;20370;-84
2022/01/02 04:19:50;;;;;;;21.23;7.68;;;10.70;99.90;;;;;;5054080;28;20117;-84
2022/01/02 04:22:16;;;;;;;11.82;7.45;;;10.70;99.90;;;;;;5052973;28;20495;-83
2022/01/02 04:24:41;;;;;;;17.70;7.45;;;10.70;99.90;;;;;;5053951;28;20026;-83
2022/01/02 04:27:07;;;;;;;17.45;7.38;;;10.70;99.90;;;;;;5053670;28;20049;-84
2022/01/02 04:29:33;;;;;;;21.38;7.55;;;10.70;99.90;;;;;;5053142;28;20104;-84
2022/01/02 04:31:58;;;;;;;12.57;7.07;;;10.70;99.90;;;;;;5052440;28;20062;-84
2022/01/02 04:34:24;;;;;;;14.57;7.65;;;10.80;99.90;;;;;;5052683;28;20021;-84
2022/01/02 04:36:49;;;;;;;16.10;7.32;;;10.80;99.90;;;;;;5052565;28;20036;-85
2022/01/02 04:39:15;;;;;;;12.77;8.00;;;10.80;99.90;;;;;;5052580;28;20021;-84
2022/01/02 04:41:41;;;;;;;16.55;7.18;;;10.80;99.90;;;;;;5053281;28;20071;-84
2022/01/02 04:44:06;;;;;;;19.50;7.72;;;10.80;99.90;;;;;;5052650;28;20071;-84
2022/01/02 04:46:32;;;;;;;16.25;7.88;;;10.80;99.90;;;;;;5052391;28;20025;-84
2022/01/02 04:48:57;;;;;;;14.65;7.38;;;10.80;99.90;;;;;;5053625;28;20027;-85
2022/01/02 04:51:23;;;;;;;16.58;7.68;;;10.80;99.90;;;;;;5052917;28;20422;-83
2022/01/02 04:53:49;;;;;;;20.98;8.63;;;10.80;99.90;;;;;;5052712;28;20024;-84
2022/01/02 04:56:16;;;;;;;16.10;7.32;;;10.80;99.90;;;;;;5051831;28;20039;-84
2022/01/02 04:58:42;;;;;;;16.08;7.60;;;10.80;99.90;;;;;;5052072;28;20527;-84
2022/01/02 05:01:11;;;;;;;14.65;6.72;;;10.80;99.90;;;;;;5052332;28;20569;-84
2022/01/02 05:03:41;;;;;;;18.75;7.43;;;10.90;99.90;;;;;;5051817;28;20469;-85
2022/01/02 05:06:07;;;;;;;32.60;8.43;;;10.80;99.90;;;;;;5052158;28;20025;-84
2022/01/02 05:08:34;;;;;;;26.67;8.68;;;10.80;99.90;;;;;;5052380;28;20029;-83
2022/01/02 05:10:59;;;;;;;19.00;7.75;;;10.90;99.90;;;;;;5052394;28;20078;-84
2022/01/02 05:13:25;;;;;;;22.35;7.15;;;10.90;99.90;;;;;;5052417;28;20451;-84
2022/01/02 05:15:51;;;;;;;18.95;7.75;;;10.90;99.90;;;;;;5052086;28;20548;-84
2022/01/02 05:18:17;;;;;;;17.65;6.93;;;11.00;99.90;;;;;;5053302;28;20031;-84
2022/01/02 05:20:46;;;;;;;17.75;6.95;;;11.00;99.90;;;;;;5051969;28;20028;-84
2022/01/02 05:23:21;;;;;;;15.32;7.38;;;10.90;99.90;;;;;;5052315;28;20027;-84
2022/01/02 05:25:47;;;;;;;13.13;6.35;;;10.90;99.90;;;;;;5051979;28;20098;-83
2022/01/02 05:28:13;;;;;;;14.73;6.22;;;10.90;99.90;;;;;;5051934;28;20052;-84
2022/01/02 05:30:40;;;;;;;18.65;6.72;;;10.80;99.90;;;;;;5052135;28;20021;-84
2022/01/02 05:33:06;;;;;;;16.42;7.03;;;11.00;99.90;;;;;;5053458;28;20021;-84
2022/01/02 05:35:32;;;;;;;16.02;6.20;;;11.00;99.90;;;;;;5053070;28;20060;-83
2022/01/02 05:37:58;;;;;;;17.80;5.53;;;11.00;99.90;;;;;;5052101;28;20029;-84
2022/01/02 05:40:25;;;;;;;15.20;4.43;;;11.00;99.90;;;;;;5051851;28;20029;-84
2022/01/02 05:42:51;;;;;;;16.67;4.30;;;11.10;99.90;;;;;;5052395;28;20028;-84
2022/01/02 05:45:16;;;;;;;16.90;4.57;;;11.20;99.90;;;;;;5056168;28;20021;-85
2022/01/02 05:47:42;;;;;;;15.35;4.57;;;11.20;99.90;;;;;;5055849;28;20021;-85
2022/01/02 05:50:08;;;;;;;14.60;4.38;;;11.20;99.90;;;;;;5055841;28;20366;-84
2022/01/02 05:52:34;;;;;;;12.98;5.13;;;11.20;99.90;;;;;;5055845;28;20622;-84
2022/01/02 05:55:00;;;;;;;14.25;6.20;;;11.10;99.90;;;;;;5055547;28;20025;-84
2022/01/02 05:57:25;;;;;;;24.02;6.80;;;11.10;99.90;;;;;;5055793;28;20112;-84
2022/01/02 05:59:51;;;;;;;15.07;5.38;;;11.00;99.90;;;;;;5055760;28;20025;-84
2022/01/02 06:02:17;;;;;;;13.68;5.93;;;11.00;99.90;;;;;;5055538;28;20028;-84
2022/01/02 06:04:42;;;;;;;18.30;5.78;;;10.90;99.90;;;;;;5055402;28;20063;-84
2022/01/02 06:07:09;;;;;;;12.57;5.93;;;10.90;99.90;;;;;;5055731;28;20080;-84
2022/01/02 06:09:34;;;;;;;16.17;5.63;;;10.90;99.90;;;;;;5055398;28;20484;-84
2022/01/02 06:12:00;;;;;;;12.80;5.32;;;10.90;99.90;;;;;;5055293;28;20083;-84
2022/01/02 06:14:25;;;;;;;12.18;5.28;;;11.00;99.90;;;;;;5056466;28;20079;-84
2022/01/02 06:16:51;;;;;;;13.85;5.53;;;10.90;99.90;;;;;;5055254;28;20021;-84
2022/01/02 06:19:17;;;;;;;14.00;4.90;;;11.00;99.90;;;;;;5055313;28;20025;-84
2022/01/02 06:21:43;;;;;;;11.82;4.60;;;11.00;99.90;;;;;;5055346;28;20120;-84
2022/01/02 06:24:08;;;;;;;10.52;4.53;;;11.00;99.90;;;;;;5055014;28;20025;-84
2022/01/02 06:26:34;;;;;;;11.07;3.90;;;11.00;99.90;;;;;;5055255;28;20489;-84
2022/01/02 06:29:03;;;;;;;13.88;4.82;;;11.10;99.90;;;;;;5054994;28;20025;-84
2022/01/02 06:31:29;;;;;;;16.00;4.93;;;11.10;99.90;;;;;;5056474;28;20024;-84
2022/01/02 06:33:55;;;;;;;10.13;3.67;;;11.00;99.90;;;;;;5054929;28;20032;-84
2022/01/02 06:36:21;;;;;;;13.45;3.88;;;11.00;99.90;;;;;;5056376;28;20025;-84
2022/01/02 06:38:47;;;;;;;10.63;4.57;;;11.00;99.90;;;;;;5054911;28;20028;-85
2022/01/02 06:41:12;;;;;;;7.20;4.05;;;11.10;99.90;;;;;;5056069;28;20036;-84
2022/01/02 06:43:39;;;;;;;9.07;3.90;;;11.10;99.90;;;;;;5054998;28;20051;-84
2022/01/02 06:46:05;;;;;;;11.52;4.03;;;11.10;99.90;;;;;;5054867;28;20029;-83
2022/01/02 06:48:31;;;;;;;9.98;3.80;;;11.10;99.90;;;;;;5054709;28;20039;-84
2022/01/02 06:51:31;;;;;;;14.05;3.80;;;11.00;99.90;;;;;;5054569;28;20439;-84
2022/01/02 06:53:56;;;;;;;8.90;3.80;;;11.10;99.90;;;;;;5050196;28;20057;-84
2022/01/02 06:56:24;;;;;;;13.65;3.88;;;11.00;99.90;;;;;;5055033;28;20644;-84
2022/01/02 06:58:50;;;;;;;12.25;4.07;;;11.10;99.90;;;;;;5054140;28;20056;-84
2022/01/02 07:01:15;;;;;;;8.38;3.75;;;11.10;99.90;;;;;;5054556;28;20405;-84
2022/01/02 07:03:41;;;;;;;10.35;4.18;;;11.00;99.90;;;;;;5054279;28;20053;-85
2022/01/02 07:06:06;;;;;;;13.82;3.70;;;11.00;99.90;;;;;;5054207;28;20424;-84
2022/01/02 07:08:32;;;;;;;10.50;4.00;;;11.10;99.90;;;;;;5054911;28;20067;-84
2022/01/02 07:10:57;;;;;;;9.85;4.45;;;11.10;99.90;;;;;;5053237;28;20024;-84
2022/01/02 07:13:23;;;;;;;13.25;3.50;;;11.10;99.90;;;;;;5046795;28;20013;-81
2022/01/02 07:15:50;;;;;;;11.98;3.40;;;11.10;99.90;;;;;;5035848;28;20384;-82
2022/01/02 07:18:15;;;;;;;12.35;3.42;;;11.10;99.90;;;;;;5040534;28;20083;-82
2022/01/02 07:20:41;;;;;;;13.25;3.20;;;11.20;99.90;;;;;;5033966;28;20021;-81
2022/01/02 07:23:06;;;;;;;6.45;3.17;;;11.20;99.90;;;;;;5048223;28;20064;-82
2022/01/02 07:25:32;;;;;;;10.65;3.45;;;11.20;99.90;;;;;;5052457;28;20480;-82
2022/01/02 07:27:58;;;;;;;6.88;3.20;;;11.20;99.90;;;;;;5051061;28;20071;-82
2022/01/02 07:30:23;;;;;;;10.13;3.80;;;11.20;99.90;;;;;;5052187;28;20029;-82
2022/01/02 07:32:49;;;;;;;7.78;3.47;;;11.30;99.90;;;;;;5052483;28;20477;-82
2022/01/02 07:35:14;;;;;;;12.13;3.75;;;11.20;99.90;;;;;;5052615;28;20534;-82
2022/01/02 07:37:40;;;;;;;11.18;3.40;;;11.30;99.90;;;;;;5050663;28;20029;-82
2022/01/02 07:40:08;;;;;;;9.35;2.95;;;11.40;99.90;;;;;;5051012;28;20029;-82
2022/01/02 07:42:34;;;;;;;9.07;3.00;;;11.30;99.90;;;;;;5050408;28;20382;-82
2022/01/02 07:44:59;;;;;;;7.78;2.88;;;11.20;99.90;;;;;;5052095;28;20064;-82
2022/01/02 07:47:25;;;;;;;5.57;2.60;;;11.20;99.90;;;;;;5050803;28;20032;-82
2022/01/02 07:49:50;;;;;;;4.75;3.05;;;11.20;99.90;;;;;;5043061;28;20040;-82
2022/01/02 07:52:16;;;;;;;9.10;3.95;;;11.20;99.90;;;;;;5038228;28;20026;-81
2022/01/02 07:54:42;;;;;;;7.75;3.50;;;11.30;99.90;;;;;;5039800;28;20025;-82
2022/01/02 07:57:07;;;;;;;12.05;4.65;;;11.20;99.90;;;;;;5041969;28;20460;-82
2022/01/02 07:59:33;;;;;;;9.77;4.28;;;11.20;99.90;;;;;;5047931;28;20033;-82
2022/01/02 08:01:59;;;;;;;11.48;4.57;;;11.30;99.90;;;;;;5053315;28;20044;-85
2022/01/02 08:04:25;;;;;;;9.85;5.20;;;11.20;99.90;;;;;;5053269;28;20063;-84
2022/01/02 08:06:50;;;;;;;11.23;4.60;;;11.20;99.90;;;;;;5034838;28;20037;-85
2022/01/02 08:09:16;;;;;;;11.20;4.10;;;11.20;99.90;;;;;;5033310;28;20143;-85
2022/01/02 08:11:41;;;;;;;11.15;4.85;;;11.20;99.90;;;;;;5033182;28;20072;-84
2022/01/02 08:14:07;;;;;;;11.80;4.45;;;11.30;99.90;;;;;;5038134;28;20040;-82
2022/01/02 08:16:33;;;;;;;7.88;3.80;;;11.30;99.90;;;;;;5053956;28;20025;-82
2022/01/02 08:18:59;;;;;;;8.00;3.97;;;11.30;99.90;;;;;;5052848;28;20072;-83
2022/01/02 08:21:25;;;;;;;7.82;4.00;;;11.30;99.90;;;;;;5052590;28;20025;-83
2022/01/02 08:23:50;;;;;;;5.80;4.03;;;11.30;99.90;;;;;;5052461;28;20109;-83
2022/01/02 08:26:16;;;;;;;6.38;4.20;;;11.40;99.90;;;;;;5052723;28;20067;-83
2022/01/02 08:28:42;;;;;;;7.50;4.13;;;11.50;99.90;;;;;;5052653;28;20029;-83
2022/01/02 08:31:07;;;;;;;4.60;3.83;;;11.40;99.90;;;;;;5053843;28;20021;-83
2022/01/02 08:33:33;;;;;;;5.45;4.07;;;11.50;99.90;;;;;;5037171;28;20137;-82
2022/01/02 08:35:58;;;;;;;6.03;4.68;;;11.50;99.90;;;;;;5035854;28;20022;-82
2022/01/02 08:38:24;;;;;;;8.95;4.60;;;11.50;99.90;;;;;;5052465;28;20036;-82
2022/01/02 08:40:49;;;;;;;7.05;4.30;;;11.50;99.90;;;;;;5052410;28;20392;-83
2022/01/02 08:43:15;;;;;;;6.80;4.60;;;11.50;99.90;;;;;;5053689;28;20040;-82
2022/01/02 08:45:40;;;;;;;10.13;4.60;;;11.60;99.90;;;;;;5053336;28;20047;-82
2022/01/02 08:48:06;;;;;;;7.85;4.40;;;11.60;99.90;;;;;;5050978;28;20029;-82
2022/01/02 08:50:32;;;;;;;8.40;5.38;;;11.60;99.90;;;;;;5050753;28;20415;-82
2022/01/02 08:52:58;;;;;;;9.73;5.45;;;11.60;99.90;;;;;;5048831;28;20028;-82
2022/01/02 08:55:23;;;;;;;12.00;6.28;;;11.70;99.90;;;;;;5036539;28;20393;-82
2022/01/02 08:57:49;;;;;;;6.65;4.72;;;11.60;99.90;;;;;;5035153;28;20485;-82
2022/01/02 09:00:16;;;;;;;39.35;35.95;;;11.70;99.90;;;;;;5042360;28;20364;-82
2022/01/02 09:02:41;;;;;;;61.60;56.00;;;11.70;99.90;;;;;;5049483;28;20017;-82
2022/01/02 09:05:08;;;;;;;22.05;19.63;;;11.90;99.90;;;;;;5052857;28;20124;-82
2022/01/02 09:07:34;;;;;;;11.60;9.00;;;11.90;99.90;;;;;;5053407;28;20033;-81
2022/01/02 09:10:00;;;;;;;14.95;13.48;;;11.90;99.90;;;;;;5053236;28;20021;-81
2022/01/02 09:12:25;;;;;;;17.02;14.60;;;11.80;99.90;;;;;;5053665;28;20509;-82
2022/01/02 09:14:51;;;;;;;12.50;9.85;;;12.00;99.90;;;;;;5050773;28;20033;-81
2022/01/02 09:17:16;;;;;;;9.82;6.82;;;11.90;99.90;;;;;;5050098;28;20032;-81
2022/01/02 09:19:42;;;;;;;8.93;6.00;;;11.80;99.90;;;;;;5048997;28;20021;-81
2022/01/02 09:22:07;;;;;;;8.02;5.10;;;11.80;99.90;;;;;;5049104;28;20029;-81
2022/01/02 09:24:33;;;;;;;7.88;5.10;;;11.80;99.90;;;;;;5050265;28;20032;-81
2022/01/02 09:26:58;;;;;;;6.93;5.25;;;11.70;99.90;;;;;;5049153;28;20477;-82
2022/01/02 09:29:24;;;;;;;9.52;4.43;;;11.80;99.90;;;;;;5042387;28;20021;-81
2022/01/02 09:31:50;;;;;;;10.82;5.50;;;11.70;99.90;;;;;;5050418;28;20024;-81
2022/01/02 09:34:16;;;;;;;8.80;5.50;;;11.70;99.90;;;;;;5050772;28;20033;-81
2022/01/02 09:36:42;;;;;;;10.18;6.03;;;11.80;99.90;;;;;;5048994;28;20036;-81
2022/01/02 09:39:07;;;;;;;9.88;5.82;;;11.80;99.90;;;;;;5048626;28;20068;-82
2022/01/02 09:41:33;;;;;;;10.73;6.18;;;11.80;99.90;;;;;;5040285;28;20025;-81
2022/01/02 09:43:59;;;;;;;11.10;5.88;;;11.80;99.90;;;;;;5039192;28;20017;-81
2022/01/02 09:46:26;;;;;;;13.88;6.40;;;11.90;99.90;;;;;;5040698;28;20025;-81
2022/01/02 09:48:53;;;;;;;9.13;5.80;;;11.80;99.90;;;;;;5048765;28;20029;-81
2022/01/02 09:51:24;;;;;;;15.13;6.55;;;11.80;99.90;;;;;;5048704;28;20029;-81
2022/01/02 09:53:50;;;;;;;12.88;6.22;;;11.90;99.90;;;;;;5050337;28;20028;-81
2022/01/02 09:56:16;;;;;;;13.05;5.95;;;11.90;99.90;;;;;;5048867;28;20037;-81
2022/01/02 09:58:43;;;;;;;13.27;5.15;;;11.90;99.90;;;;;;5050128;28;20021;-81
2022/01/02 10:01:17;;;;;;;14.65;6.22;;;11.80;99.90;;;;;;5046699;28;20036;-81
2022/01/02 10:03:45;;;;;;;12.80;5.30;;;11.80;99.90;;;;;;5043882;28;20516;-81
2022/01/02 10:06:11;;;;;;;11.57;5.18;;;11.80;99.90;;;;;;5032004;28;20029;-81
2022/01/02 10:08:37;;;;;;;11.90;4.50;;;11.80;99.90;;;;;;5039122;28;20025;-82
2022/01/02 10:11:20;;;;;;;11.68;5.03;;;11.70;99.90;;;;;;5044962;28;20025;-81
2022/01/02 10:13:50;;;;;;;17.20;5.28;;;11.70;99.90;;;;;;5037981;28;20329;-81
2022/01/02 10:16:19;;;;;;;16.60;5.22;;;11.70;99.90;;;;;;5046997;28;20069;-82
2022/01/02 10:18:45;;;;;;;16.60;5.60;;;11.80;99.90;;;;;;5042877;28;20021;-81
2022/01/02 10:21:11;;;;;;;23.77;7.32;;;11.90;99.90;;;;;;5046409;28;20025;-81
2022/01/02 10:23:36;;;;;;;18.88;5.75;;;11.90;99.90;;;;;;5049691;28;20468;-81
2022/01/02 10:26:04;;;;;;;19.60;5.57;;;11.90;99.90;;;;;;5076877;28;20541;-81
2022/01/02 10:28:35;;;;;;;13.05;5.07;;;12.00;99.90;;;;;;5048656;28;20021;-81
2022/01/02 10:31:04;;;;;;;19.00;4.93;;;11.90;99.90;;;;;;5050711;28;20438;-82
2022/01/02 10:33:56;;;;;;;14.43;4.80;;;12.10;99.90;;;;;;5052048;28;20029;-81
2022/01/02 10:36:26;;;;;;;14.88;5.18;;;12.10;99.90;;;;;;5054569;28;20129;-80
2022/01/02 10:39:11;;;;;;;18.50;5.50;;;12.20;99.90;;;;;;5054856;28;20025;-80
2022/01/02 10:41:42;;;;;;;15.30;4.70;;;12.20;99.90;;;;;;5054872;28;20048;-81
2022/01/02 10:44:29;;;;;;;16.67;4.53;;;12.20;99.90;;;;;;5054273;28;20040;-81
2022/01/02 10:47:24;;;;;;;21.58;4.80;;;12.30;99.90;;;;;;5046801;28;20029;-81
2022/01/02 10:49:59;;;;;;;19.00;5.00;;;12.40;99.90;;;;;;5046152;28;20013;-81
2022/01/02 10:52:30;;;;;;;20.15;4.80;;;12.70;99.90;;;;;;5053413;28;20025;-80
2022/01/02 10:54:59;;;;;;;18.10;4.97;;;13.00;99.90;;;;;;5052248;28;20028;-80
2022/01/02 10:57:26;;;;;;;15.60;4.43;;;12.90;99.90;;;;;;5051675;28;20029;-80
2022/01/02 10:59:56;;;;;;;19.90;5.13;;;12.50;99.90;;;;;;5051758;28;20094;-82
2022/01/02 11:02:23;;;;;;;16.92;4.53;;;12.30;99.90;;;;;;5053242;28;20472;-82
2022/01/02 11:04:56;;;;;;;17.20;5.13;;;12.30;99.90;;;;;;5044810;28;20041;-82
2022/01/02 11:07:24;;;;;;;24.00;5.82;;;12.10;95.40;;;;;;5052608;28;20032;-81
2022/01/02 11:09:52;;;;;;;15.10;4.68;;;11.90;66.50;;;;;;5051709;28;20381;-82
2022/01/02 11:12:18;;;;;;;18.33;4.72;;;11.90;99.90;;;;;;5051641;28;20025;-82
2022/01/02 11:14:44;;;;;;;16.27;4.53;;;12.00;1.00;;;;;;5051243;28;20393;-81
2022/01/02 11:17:12;;;;;;;13.48;4.65;;;12.00;1.00;;;;;;5049833;28;20079;-82
2022/01/02 11:19:37;;;;;;;15.90;4.53;;;12.00;1.00;;;;;;5044169;28;20030;-82
2022/01/02 11:22:05;;;;;;;14.02;4.50;;;12.00;1.00;;;;;;5048161;28;20048;-81
2022/01/02 11:24:38;;;;;;;22.17;4.65;;;12.00;1.00;;;;;;5051162;28;20042;-82
2022/01/02 11:27:15;;;;;;;21.23;4.60;;;12.00;1.00;;;;;;5052682;28;20028;-82
2022/01/02 11:29:41;;;;;;;15.35;4.20;;;12.00;1.00;;;;;;5051337;28;20057;-82
2022/01/02 11:32:25;;;;;;;20.13;4.00;;;12.10;99.90;;;;;;5046228;28;20044;-83
2022/01/02 11:34:51;;;;;;;14.45;3.35;;;12.10;99.90;;;;;;5070945;28;20026;-82
2022/01/02 11:37:25;;;;;;;14.75;4.35;;;12.10;99.90;;;;;;5039003;28;20025;-82
2022/01/02 11:40:03;;;;;;;15.52;3.55;;;12.10;99.90;;;;;;5042123;28;20083;-82
2022/01/02 11:42:34;;;;;;;14.60;3.35;;;12.20;99.90;;;;;;5040652;28;20026;-82
2022/01/02 11:45:01;;;;;;;13.00;3.53;;;12.30;99.90;;;;;;5040759;28;20206;-82
2022/01/02 11:47:44;;;;;;;12.73;3.50;;;12.30;99.90;;;;;;5042110;28;20404;-82
2022/01/02 11:50:36;;;;;;;12.88;3.60;;;12.20;99.90;;;;;;5048398;28;20048;-82
2022/01/02 11:53:13;;;;;;;13.02;3.33;;;12.10;99.90;;;;;;5041045;28;20029;-82
2022/01/02 11:55:40;;;;;;;21.50;3.45;;;12.20;99.90;;;;;;5037138;28;20017;-82
2022/01/02 11:58:06;;;;;;;15.13;3.17;;;12.30;99.90;;;;;;5045150;28;20551;-82
2022/01/02 12:00:34;;;;;;;15.30;3.20;;;12.20;99.90;;;;;;5040507;28;20029;-82
2022/01/02 12:02:59;;;;;;;21.10;3.67;;;12.00;99.90;;;;;;5041873;28;20044;-82
2022/01/02 12:05:25;;;;;;;17.33;2.85;;;12.00;99.90;;;;;;5040498;28;20045;-82
2022/01/02 12:07:54;;;;;;;14.27;3.40;;;11.80;99.90;;;;;;5050106;28;20045;-82
2022/01/02 12:10:32;;;;;;;13.25;2.67;;;12.10;99.90;;;;;;5048678;28;20063;-82
2022/01/02 12:13:34;;;;;;;18.23;2.72;;;12.10;99.90;;;;;;5053069;28;20075;-83
2022/01/02 12:16:01;;;;;;;16.20;2.67;;;11.80;99.90;;;;;;5054143;28;20484;-80
2022/01/02 12:18:28;;;;;;;16.63;3.58;;;11.90;99.90;;;;;;5051971;28;20021;-80
2022/01/02 12:20:56;;;;;;;17.67;3.63;;;12.10;99.90;;;;;;5042781;28;20040;-81
2022/01/02 12:23:33;;;;;;;20.05;2.90;;;12.20;99.90;;;;;;5032493;28;20029;-81
2022/01/02 12:26:05;;;;;;;16.90;3.15;;;12.40;99.90;;;;;;5050041;28;20028;-81
2022/01/02 12:28:47;;;;;;;14.48;3.58;;;12.50;99.90;;;;;;5052717;28;20029;-81
2022/01/02 12:31:15;;;;;;;18.25;3.47;;;12.50;99.90;;;;;;5050806;28;20112;-81
2022/01/02 12:33:41;;;;;;;19.13;3.50;;;12.50;99.90;;;;;;5049758;28;20469;-81
2022/01/02 12:36:20;;;;;;;17.83;2.58;;;12.50;99.90;;;;;;5049591;28;20060;-82
2022/01/02 12:38:59;;;;;;;14.97;2.10;;;12.40;99.90;;;;;;5052524;28;20178;-81
2022/01/02 12:41:37;;;;;;;14.82;2.53;;;12.30;99.90;;;;;;5053766;28;20048;-81
2022/01/02 12:44:08;;;;;;;13.85;2.42;;;12.30;99.90;;;;;;5033826;28;20024;-81
2022/01/02 12:46:39;;;;;;;11.95;2.00;;;12.30;99.90;;;;;;5038546;28;20021;-82
2022/01/02 12:49:25;;;;;;;12.18;2.60;;;12.20;99.90;;;;;;5049052;28;20048;-82
2022/01/02 12:51:55;;;;;;;10.73;2.05;;;12.20;99.90;;;;;;5050189;28;20017;-82
2022/01/02 12:54:23;;;;;;;12.75;2.63;;;12.20;99.90;;;;;;5040533;28;20029;-82
2022/01/02 12:56:54;;;;;;;15.35;3.85;;;12.20;99.90;;;;;;5048535;28;20037;-82